Lewisport, KY

9:09 AM CDT on October 31, 2014 (GMT -0500)
RMR - Owensboro | Change Station
CLOSE
Current Station
Personal Weather Station
Location: Owensboro, KY
Elevation: 387 ft
Nearby Weather Stations
Active Advisory: Freeze Watch, Special Statement

Elev 387 ft 37.83 °N, 87.02 °W | Updated 1 minute ago

Mostly Cloudy
Mostly Cloudy
49.1 °F
Feels Like 49 °F
N
0.0
Wind Variable Wind from NNE
Gusts 0.0 mph

Today
High -- | Low -- °F
--% Chance of Precip.
Yesterday
High -- | Low -- °F
Precip. -- in
7:12 AM 5:49 PM
First Quarter, 55% visible
Pressure 30.06 in
Visibility 6.0 miles
Clouds Few 1400 ft
Scattered Clouds 5000 ft
Mostly Cloudy 8000 ft
Windchill 49 °F
Dew Point 46 °F
Humidity 89%
Rainfall 0.00 in
Snow Depth Not available.
UV 1 out of 12
Pollen .90 out of 12
Air Quality Not available.
Flu Activity Not available.
METAR KOWB 311356Z 34009KT 6SM BR FEW014 SCT050 BKN080 10/08 A3006 RMK AO2 T01000077 SLP180

More Conditions Fewer Conditions

Pressure 30.06 in
Visibility 6.0 miles
Clouds Few 1400 ft
Scattered Clouds 5000 ft
Mostly Cloudy 8000 ft
Windchill 49 °F
Dew Point 46 °F
Humidity 89%
Rainfall 0.00 in
Snow Depth Not available.
UV 1 out of 12
Pollen .90 out of 12
Air Quality Not available.
Flu Activity Not available.
METAR KOWB 311356Z 34009KT 6SM BR FEW014 SCT050 BKN080 10/08 A3006 RMK AO2 T01000077 SLP180

More Conditions Fewer Conditions

10-Day Weather Forecast

Almanac

Astronomy

Oct. 31, 2014 Rise Set
Actual Time
Civil Twilight
Nautical Twilight
Astronomical Twilight
Moon
Length of Visible Light
Length of Day
Tomorrow will be .
, % of the Moon is Illuminated

Today's Extremes

State Highs State Lows

Community

WunderPhotos

Upload Photos

1,766,613 photos uploaded!

WunderBlogs® & News

Nearby

Air Quality

  Air Quality AQ Index Pollutant
Not available.

Snow Depth

Station Depth Elevation

Earthquake Activity

City Distance Mag. Time & Date
Minimum magnitude displayed is 2.5.

Coastal Water Temperatures

Place Temperature

Nearby Weather Stations